CheckWX is a tool to help pilots better visualize weather data.  It is not intended as a substitute for an official pre-flight weather briefing.

02:17:38 UTC

KEVW TAF
Evanston-Uinta County Burns Field Airport
Evanston, Wyoming, USA
KEVW 222339Z 2300/2324 36010KT P6SM FEW030 FM230200 05008KT P6SM SKC FM232000 31013G20KT P6SM SCT150

Apr-23@
00:00 UTC

Apr-23 @ 00:00 UTC

Apr-23@
02:00 UTC

Apr-23 @ 02:00 UTC

KEVW 222339Z 2300/2324 36010KT P6SM FEW030

Expired

Wind
  • 360° at 10 KTS
Cloud Levels
  • Few at 3,000' AGL

Apr-23@
02:00 UTC

Apr-23 @ 02:00 UTC

Apr-23@
20:00 UTC

Apr-23 @ 20:00 UTC

FM230200 05008KT P6SM SKC

From

From Standard forecast or significant change

Wind
  • 050° at 8 KTS
Cloud Levels
  • Clear skies

Apr-23@
20:00 UTC

Apr-23 @ 20:00 UTC

Apr-24@
00:00 UTC

Apr-24 @ 00:00 UTC

FM232000 31013G20KT P6SM SCT150

From

From Standard forecast or significant change

Wind
  • 310° at 13 KTS
  • {Gusting to 20 KTS
Cloud Levels
  • Scattered at 15,000' AGL